Tinsdal — V2AJ2 — position and weather

sailwx.info

Track history (hours):
 
Tides and Currents Weather Stations Pressure Air Temp Water Temp Dewpoint Dewpoint Depression Visibility Wind Speed Wind Dir Waves Ship Positions

Tinsdal

Last reported at 2017-Jan-09 21:26 UTC. Time now 2017-Jan-20 12:07 UTC.
Position N 36°29' E 014°31'.
Warning: this ship's position is 10 days out of date.

Length 90 m; draft 5.6 m.

Type: Cargo ship. MMSI: 305573000.

Date/timePositionNaut miles runAvg speedWind from/ knotsBaromVisibWave heightAir tempDewpointWater temp
2017-Jan-09 21:26N 36°29' E 014°31'8 9.5
2017-Jan-09 20:33N 36°31' E 014°21'11 9.4
2017-Jan-09 19:25N 36°35' E 014°09'8 9.1
2017-Jan-09 18:33N 36°38' E 013°60'  
2017-Jan-05 16:33N 35°56' W 005°15'4 4.0
2017-Jan-05 15:32N 35°54' W 005°19'0 0.0
2017-Jan-05 14:32N 35°54' W 005°19'0 0.0
2017-Jan-05 13:32N 35°54' W 005°19'0 0.0
2017-Jan-05 12:32N 35°54' W 005°19'0 0.0
2017-Jan-05 11:29N 35°54' W 005°19'0 0.0
2017-Jan-05 10:32N 35°54' W 005°19'1 1.0
2017-Jan-05 09:33N 35°55' W 005°19'266 8.1
2017-Jan-04 00:33N 38°17' W 010°00'9 8.7
2017-Jan-03 23:33N 38°26' W 010°03'9 8.5
2017-Jan-03 22:33N 38°34' W 010°05'8 8.4
2017-Jan-03 21:33N 38°42' W 010°08'8 8.2
2017-Jan-03 20:33N 38°50' W 010°08'8 8.2
2017-Jan-03 19:33N 38°58' W 010°08'  
2016-Dec-31 16:17N 48°28' W 006°08'15 8.9
2016-Dec-31 14:33N 48°42' W 005°57'10 9.6
2016-Dec-31 13:33N 48°50' W 005°50'2210.9
2016-Dec-31 11:33N 49°03' W 005°23'1311.0
2016-Dec-31 10:25N 49°09' W 005°07'77 9.4
2016-Dec-31 02:14N 49°49' W 003°25'1211.3
2016-Dec-31 01:11N 49°56' W 003°09'711.0
2016-Dec-31 00:33N 49°59' W 003°00'  
Track history (hours):
 
Tides and Currents Weather Stations Pressure Air Temp Water Temp Dewpoint Dewpoint Depression Visibility Wind Speed Wind Dir Waves Ship Positions

Tinsdal

Last reported at 2017-Jan-09 21:26 UTC. Time now 2017-Jan-20 12:07 UTC.
Position N 36°29' E 014°31'.
Warning: this ship's position is 10 days out of date.

Length 90 m; draft 5.6 m.

Type: Cargo ship. MMSI: 305573000.

Date/timePositionNaut miles runAvg speedWind from/ knotsBaromVisibWave heightAir tempDewpointWater temp
2017-Jan-09 21:26N 36°29' E 014°31'8 9.5
2017-Jan-09 20:33N 36°31' E 014°21'11 9.4
2017-Jan-09 19:25N 36°35' E 014°09'8 9.1
2017-Jan-09 18:33N 36°38' E 013°60'  
2017-Jan-05 16:33N 35°56' W 005°15'4 4.0
2017-Jan-05 15:32N 35°54' W 005°19'0 0.0
2017-Jan-05 14:32N 35°54' W 005°19'0 0.0
2017-Jan-05 13:32N 35°54' W 005°19'0 0.0
2017-Jan-05 12:32N 35°54' W 005°19'0 0.0
2017-Jan-05 11:29N 35°54' W 005°19'0 0.0
2017-Jan-05 10:32N 35°54' W 005°19'1 1.0
2017-Jan-05 09:33N 35°55' W 005°19'266 8.1
2017-Jan-04 00:33N 38°17' W 010°00'9 8.7
2017-Jan-03 23:33N 38°26' W 010°03'9 8.5
2017-Jan-03 22:33N 38°34' W 010°05'8 8.4
2017-Jan-03 21:33N 38°42' W 010°08'8 8.2
2017-Jan-03 20:33N 38°50' W 010°08'8 8.2
2017-Jan-03 19:33N 38°58' W 010°08'  
2016-Dec-31 16:17N 48°28' W 006°08'15 8.9
2016-Dec-31 14:33N 48°42' W 005°57'10 9.6
2016-Dec-31 13:33N 48°50' W 005°50'2210.9
2016-Dec-31 11:33N 49°03' W 005°23'1311.0
2016-Dec-31 10:25N 49°09' W 005°07'77 9.4
2016-Dec-31 02:14N 49°49' W 003°25'1211.3
2016-Dec-31 01:11N 49°56' W 003°09'711.0
2016-Dec-31 00:33N 49°59' W 003°00'  

Dump ship's entire track history